sensor_id;sensor_type;location;lat;lon;timestamp;pressure;altitude;pressure_sealevel;temperature;humidity
28310;BME280;15571;50.974;13.936;2023-04-01T00:03:01;98327.84;;;10.76;100.00
28310;BME280;15571;50.974;13.936;2023-04-01T00:06:03;98320.91;;;10.75;100.00
28310;BME280;15571;50.974;13.936;2023-04-01T00:09:05;98320.78;;;10.78;100.00
28310;BME280;15571;50.974;13.936;2023-04-01T00:12:13;98319.16;;;10.76;100.00
28310;BME280;15571;50.974;13.936;2023-04-01T00:15:16;98316.53;;;10.76;100.00
28310;BME280;15571;50.974;13.936;2023-04-01T00:18:24;98321.69;;;10.77;100.00
28310;BME280;15571;50.974;13.936;2023-04-01T00:21:33;98325.22;;;10.76;100.00
28310;BME280;15571;50.974;13.936;2023-04-01T00:24:41;98322.59;;;10.76;100.00
28310;BME280;15571;50.974;13.936;2023-04-01T00:27:45;98325.31;;;10.73;100.00
28310;BME280;15571;50.974;13.936;2023-04-01T00:30:57;98314.94;;;10.71;100.00
28310;BME280;15571;50.974;13.936;2023-04-01T00:34:05;98318.34;;;10.73;100.00
28310;BME280;15571;50.974;13.936;2023-04-01T00:37:10;98327.09;;;10.72;100.00
28310;BME280;15571;50.974;13.936;2023-04-01T00:40:23;98325.31;;;10.73;100.00
28310;BME280;15571;50.974;13.936;2023-04-01T00:43:33;98325.41;;;10.71;100.00
28310;BME280;15571;50.974;13.936;2023-04-01T00:46:40;98323.75;;;10.69;100.00
28310;BME280;15571;50.974;13.936;2023-04-01T00:49:46;98326.44;;;10.67;100.00
28310;BME280;15571;50.974;13.936;2023-04-01T00:52:55;98325.50;;;10.68;100.00
28310;BME280;15571;50.974;13.936;2023-04-01T00:56:00;98323.81;;;10.67;100.00
28310;BME280;15571;50.974;13.936;2023-04-01T00:59:10;98325.63;;;10.65;100.00
28310;BME280;15571;50.974;13.936;2023-04-01T01:02:16;98325.63;;;10.65;100.00
28310;BME280;15571;50.974;13.936;2023-04-01T01:05:33;98323.91;;;10.64;100.00
28310;BME280;15571;50.974;13.936;2023-04-01T01:09:03;98318.78;;;10.61;100.00
28310;BME280;15571;50.974;13.936;2023-04-01T01:12:13;98319.81;;;10.57;100.00
28310;BME280;15571;50.974;13.936;2023-04-01T01:15:21;98307.50;;;10.59;100.00
28310;BME280;15571;50.974;13.936;2023-04-01T01:18:33;98319.66;;;10.62;100.00
28310;BME280;15571;50.974;13.936;2023-04-01T01:21:47;98317.94;;;10.61;100.00
28310;BME280;15571;50.974;13.936;2023-04-01T01:25:13;98315.25;;;10.62;100.00
28310;BME280;15571;50.974;13.936;2023-04-01T01:28:31;98317.88;;;10.62;100.00
28310;BME280;15571;50.974;13.936;2023-04-01T01:31:50;98311.84;;;10.60;100.00
28310;BME280;15571;50.974;13.936;2023-04-01T01:35:07;98315.25;;;10.62;100.00
28310;BME280;15571;50.974;13.936;2023-04-01T01:38:13;98318.78;;;10.61;100.00
28310;BME280;15571;50.974;13.936;2023-04-01T01:41:20;98310.03;;;10.62;100.00
28310;BME280;15571;50.974;13.936;2023-04-01T01:44:29;98311.84;;;10.60;100.00
28310;BME280;15571;50.974;13.936;2023-04-01T01:47:38;98317.06;;;10.60;100.00
28310;BME280;15571;50.974;13.936;2023-04-01T01:50:50;98315.34;;;10.61;100.00
28310;BME280;15571;50.974;13.936;2023-04-01T01:53:58;98308.31;;;10.61;100.00
28310;BME280;15571;50.974;13.936;2023-04-01T01:57:09;98319.81;;;10.57;100.00
28310;BME280;15571;50.974;13.936;2023-04-01T02:00:22;98313.56;;;10.61;100.00
28310;BME280;15571;50.974;13.936;2023-04-01T02:03:28;98322.38;;;10.58;100.00
28310;BME280;15571;50.974;13.936;2023-04-01T02:06:38;98322.31;;;10.60;100.00
28310;BME280;15571;50.974;13.936;2023-04-01T02:09:45;98315.38;;;10.59;100.00
28310;BME280;15571;50.974;13.936;2023-04-01T02:12:51;98313.78;;;10.55;100.00
28310;BME280;15571;50.974;13.936;2023-04-01T02:16:03;98322.44;;;10.57;100.00
28310;BME280;15571;50.974;13.936;2023-04-01T02:19:13;98320.72;;;10.56;100.00
28310;BME280;15571;50.974;13.936;2023-04-01T02:22:29;98320.59;;;10.59;100.00
28310;BME280;15571;50.974;13.936;2023-04-01T02:25:33;98314.59;;;10.57;100.00
28310;BME280;15571;50.974;13.936;2023-04-01T02:28:39;98324.16;;;10.58;100.00
28310;BME280;15571;50.974;13.936;2023-04-01T02:31:43;98320.72;;;10.56;100.00
28310;BME280;15571;50.974;13.936;2023-04-01T02:34:46;98315.38;;;10.59;100.00
28310;BME280;15571;50.974;13.936;2023-04-01T02:37:53;98331.06;;;10.59;100.00
28310;BME280;15571;50.974;13.936;2023-04-01T02:41:03;98329.38;;;10.58;100.00
28310;BME280;15571;50.974;13.936;2023-04-01T02:44:09;98328.44;;;10.59;100.00
28310;BME280;15571;50.974;13.936;2023-04-01T02:47:25;98336.28;;;10.59;100.00
28310;BME280;15571;50.974;13.936;2023-04-01T02:50:28;98332.91;;;10.57;100.00
28310;BME280;15571;50.974;13.936;2023-04-01T02:53:33;98332.91;;;10.57;100.00
28310;BME280;15571;50.974;13.936;2023-04-01T02:56:37;98335.69;;;10.52;100.00
28310;BME280;15571;50.974;13.936;2023-04-01T02:59:44;98335.56;;;10.55;100.00
28310;BME280;15571;50.974;13.936;2023-04-01T03:02:47;98349.50;;;10.56;100.00
28310;BME280;15571;50.974;13.936;2023-04-01T03:05:51;98341.69;;;10.54;100.00
28310;BME280;15571;50.974;13.936;2023-04-01T03:09:02;98353.84;;;10.57;100.00
28310;BME280;15571;50.974;13.936;2023-04-01T03:12:06;98350.41;;;10.55;100.00
28310;BME280;15571;50.974;13.936;2023-04-01T03:15:21;98350.41;;;10.55;100.00
28310;BME280;15571;50.974;13.936;2023-04-01T03:18:24;98347.00;;;10.53;100.00
28310;BME280;15571;50.974;13.936;2023-04-01T03:21:30;98352.13;;;10.56;100.00
28310;BME280;15571;50.974;13.936;2023-04-01T03:24:36;98352.06;;;10.57;100.00
28310;BME280;15571;50.974;13.936;2023-04-01T03:27:46;98359.06;;;10.57;100.00
28310;BME280;15571;50.974;13.936;2023-04-01T03:30:51;98355.53;;;10.58;100.00
28310;BME280;15571;50.974;13.936;2023-04-01T03:33:58;98359.00;;;10.58;100.00
28310;BME280;15571;50.974;13.936;2023-04-01T03:37:09;98362.47;;;10.59;100.00
28310;BME280;15571;50.974;13.936;2023-04-01T03:40:16;98367.69;;;10.59;100.00
28310;BME280;15571;50.974;13.936;2023-04-01T03:43:23;98360.78;;;10.58;100.00
28310;BME280;15571;50.974;13.936;2023-04-01T03:46:32;98362.47;;;10.59;100.00
28310;BME280;15571;50.974;13.936;2023-04-01T03:49:42;98366.00;;;10.58;100.00
28310;BME280;15571;50.974;13.936;2023-04-01T03:52:48;98357.22;;;10.59;100.00
28310;BME280;15571;50.974;13.936;2023-04-01T03:55:54;98372.91;;;10.59;100.00
28310;BME280;15571;50.974;13.936;2023-04-01T03:59:02;98376.41;;;10.59;100.00
28310;BME280;15571;50.974;13.936;2023-04-01T04:02:07;98385.22;;;10.57;100.00
28310;BME280;15571;50.974;13.936;2023-04-01T04:05:12;98383.53;;;10.56;100.00
28310;BME280;15571;50.974;13.936;2023-04-01T04:08:15;98385.31;;;10.54;100.00
28310;BME280;15571;50.974;13.936;2023-04-01T04:11:20;98389.59;;;10.56;100.00
28310;BME280;15571;50.974;13.936;2023-04-01T04:14:26;98389.66;;;10.55;100.00
28310;BME280;15571;50.974;13.936;2023-04-01T04:17:32;98390.47;;;10.57;100.00
28310;BME280;15571;50.974;13.936;2023-04-01T04:20:35;98393.13;;;10.55;100.00
28310;BME280;15571;50.974;13.936;2023-04-01T04:23:40;98395.69;;;10.57;100.00
28310;BME280;15571;50.974;13.936;2023-04-01T04:26:55;98394.81;;;10.56;100.00
28310;BME280;15571;50.974;13.936;2023-04-01T04:30:02;98401.84;;;10.56;100.00
28310;BME280;15571;50.974;13.936;2023-04-01T04:33:04;98402.75;;;10.55;100.00
28310;BME280;15571;50.974;13.936;2023-04-01T04:36:07;98396.63;;;10.54;100.00
28310;BME280;15571;50.974;13.936;2023-04-01T04:39:09;98407.97;;;10.55;100.00
28310;BME280;15571;50.974;13.936;2023-04-01T04:42:21;98411.41;;;10.57;100.00
28310;BME280;15571;50.974;13.936;2023-04-01T04:45:31;98415.75;;;10.56;100.00
28310;BME280;15571;50.974;13.936;2023-04-01T04:48:36;98401.94;;;10.53;100.00
28310;BME280;15571;50.974;13.936;2023-04-01T04:51:44;98423.00;;;10.48;100.00
28310;BME280;15571;50.974;13.936;2023-04-01T04:54:55;98409.88;;;10.50;100.00
28310;BME280;15571;50.974;13.936;2023-04-01T04:58:02;98416.78;;;10.52;100.00
28310;BME280;15571;50.974;13.936;2023-04-01T05:01:09;98429.88;;;10.52;100.00
28310;BME280;15571;50.974;13.936;2023-04-01T05:04:15;98419.41;;;10.52;100.00
28310;BME280;15571;50.974;13.936;2023-04-01T05:07:22;98429.88;;;10.52;100.00
28310;BME280;15571;50.974;13.936;2023-04-01T05:10:26;98427.19;;;10.54;100.00
28310;BME280;15571;50.974;13.936;2023-04-01T05:13:30;98434.22;;;10.52;100.00
28310;BME280;15571;50.974;13.936;2023-04-01T05:16:47;98428.94;;;10.53;100.00
28310;BME280;15571;50.974;13.936;2023-04-01T05:19:53;98433.31;;;10.53;100.00
28310;BME280;15571;50.974;13.936;2023-04-01T05:23:02;98437.00;;;10.47;100.00
28310;BME280;15571;50.974;13.936;2023-04-01T05:26:08;98436.03;;;10.50;100.00
28310;BME280;15571;50.974;13.936;2023-04-01T05:29:13;98442.97;;;10.51;100.00
28310;BME280;15571;50.974;13.936;2023-04-01T05:32:18;98446.34;;;10.54;100.00
28310;BME280;15571;50.974;13.936;2023-04-01T05:35:22;98443.72;;;10.54;100.00
28310;BME280;15571;50.974;13.936;2023-04-01T05:38:26;98445.41;;;10.57;100.00
28310;BME280;15571;50.974;13.936;2023-04-01T05:41:31;98443.63;;;10.57;100.00
28310;BME280;15571;50.974;13.936;2023-04-01T05:44:43;98446.31;;;10.56;100.00
28310;BME280;15571;50.974;13.936;2023-04-01T05:48:06;98454.00;;;10.61;100.00
28310;BME280;15571;50.974;13.936;2023-04-01T05:51:13;98449.66;;;10.59;100.00
28310;BME280;15571;50.974;13.936;2023-04-01T05:54:20;98450.41;;;10.63;100.00
28310;BME280;15571;50.974;13.936;2023-04-01T05:57:27;98444.28;;;10.64;100.00
28310;BME280;15571;50.974;13.936;2023-04-01T06:00:34;98456.41;;;10.67;100.00
28310;BME280;15571;50.974;13.936;2023-04-01T06:03:37;98460.78;;;10.66;100.00
28310;BME280;15571;50.974;13.936;2023-04-01T06:06:39;98459.06;;;10.65;100.00
28310;BME280;15571;50.974;13.936;2023-04-01T06:09:45;98454.66;;;10.67;100.00
28310;BME280;15571;50.974;13.936;2023-04-01T06:12:50;98460.72;;;10.68;100.00
28310;BME280;15571;50.974;13.936;2023-04-01T06:16:00;98461.56;;;10.68;100.00
28310;BME280;15571;50.974;13.936;2023-04-01T06:19:12;98461.56;;;10.68;100.00
28310;BME280;15571;50.974;13.936;2023-04-01T06:25:54;98466.72;;;10.71;100.00
28310;BME280;15571;50.974;13.936;2023-04-01T06:29:19;98463.19;;;10.72;100.00
28310;BME280;15571;50.974;13.936;2023-04-01T06:32:39;98467.50;;;10.73;100.00
28310;BME280;15571;50.974;13.936;2023-04-01T06:39:24;98467.41;;;10.77;100.00
28310;BME280;15571;50.974;13.936;2023-04-01T06:42:31;98470.03;;;10.77;100.00
28310;BME280;15571;50.974;13.936;2023-04-01T06:45:45;98473.44;;;10.79;100.00
28310;BME280;15571;50.974;13.936;2023-04-01T06:49:20;98473.34;;;10.82;100.00
28310;BME280;15571;50.974;13.936;2023-04-01T06:52:52;98480.28;;;10.83;100.00
28310;BME280;15571;50.974;13.936;2023-04-01T06:56:24;98474.94;;;10.86;100.00
28310;BME280;15571;50.974;13.936;2023-04-01T06:59:42;98474.06;;;10.85;100.00
28310;BME280;15571;50.974;13.936;2023-04-01T07:02:50;98479.31;;;10.85;100.00
28310;BME280;15571;50.974;13.936;2023-04-01T07:06:12;98481.03;;;10.86;100.00
28310;BME280;15571;50.974;13.936;2023-04-01T07:09:28;98473.13;;;10.88;100.00
28310;BME280;15571;50.974;13.936;2023-04-01T07:12:59;98478.25;;;10.91;100.00
28310;BME280;15571;50.974;13.936;2023-04-01T07:16:36;98480.78;;;10.94;100.00
28310;BME280;15571;50.974;13.936;2023-04-01T07:20:01;98485.09;;;10.95;100.00
28310;BME280;15571;50.974;13.936;2023-04-01T07:23:11;98483.25;;;10.97;100.00
28310;BME280;15571;50.974;13.936;2023-04-01T07:26:32;98480.59;;;10.99;100.00
28310;BME280;15571;50.974;13.936;2023-04-01T07:29:40;98487.50;;;11.01;100.00
28310;BME280;15571;50.974;13.936;2023-04-01T07:32:47;98479.63;;;11.01;100.00
28310;BME280;15571;50.974;13.936;2023-04-01T07:35:52;98492.50;;;11.08;100.00
28310;BME280;15571;50.974;13.936;2023-04-01T07:39:06;98484.53;;;11.11;100.00
28310;BME280;15571;50.974;13.936;2023-04-01T07:42:38;98484.31;;;11.17;100.00
28310;BME280;15571;50.974;13.936;2023-04-01T07:45:50;98490.25;;;11.22;100.00
28310;BME280;15571;50.974;13.936;2023-04-01T07:49:01;98496.31;;;11.24;100.00
28310;BME280;15571;50.974;13.936;2023-04-01T07:52:15;98487.41;;;11.28;100.00
28310;BME280;15571;50.974;13.936;2023-04-01T07:55:39;98496.88;;;11.32;100.00
28310;BME280;15571;50.974;13.936;2023-04-01T07:58:52;98498.47;;;11.36;100.00
28310;BME280;15571;50.974;13.936;2023-04-01T08:02:34;98507.84;;;11.42;100.00
28310;BME280;15571;50.974;13.936;2023-04-01T08:05:47;98508.63;;;11.46;100.00
28310;BME280;15571;50.974;13.936;2023-04-01T08:08:59;98507.66;;;11.48;100.00
28310;BME280;15571;50.974;13.936;2023-04-01T08:12:35;98507.47;;;11.53;100.00
28310;BME280;15571;50.974;13.936;2023-04-01T08:16:06;98520.53;;;11.55;100.00
28310;BME280;15571;50.974;13.936;2023-04-01T08:19:22;98517.25;;;11.48;100.00
28310;BME280;15571;50.974;13.936;2023-04-01T08:22:33;98524.00;;;11.55;100.00
28310;BME280;15571;50.974;13.936;2023-04-01T08:25:50;98522.97;;;11.59;100.00
28310;BME280;15571;50.974;13.936;2023-04-01T08:29:09;98515.91;;;11.61;100.00
28310;BME280;15571;50.974;13.936;2023-04-01T08:32:16;98517.38;;;11.68;100.00
28310;BME280;15571;50.974;13.936;2023-04-01T08:35:26;98511.16;;;11.71;100.00
28310;BME280;15571;50.974;13.936;2023-04-01T08:38:32;98518.84;;;11.76;100.00
28310;BME280;15571;50.974;13.936;2023-04-01T08:41:55;98516.94;;;11.81;100.00
28310;BME280;15571;50.974;13.936;2023-04-01T08:45:31;98510.66;;;11.85;100.00
28310;BME280;15571;50.974;13.936;2023-04-01T08:48:58;98517.38;;;11.92;100.00
28310;BME280;15571;50.974;13.936;2023-04-01T08:55:44;98516.34;;;11.96;100.00
28310;BME280;15571;50.974;13.936;2023-04-01T09:06:14;98511.00;;;11.99;100.00
28310;BME280;15571;50.974;13.936;2023-04-01T09:12:45;98511.09;;;11.96;100.00
28310;BME280;15571;50.974;13.936;2023-04-01T09:16:02;98518.63;;;12.06;100.00
28310;BME280;15571;50.974;13.936;2023-04-01T09:19:17;98511.75;;;12.03;100.00
28310;BME280;15571;50.974;13.936;2023-04-01T09:22:33;98525.53;;;12.08;100.00
28310;BME280;15571;50.974;13.936;2023-04-01T09:25:51;98526.13;;;12.15;100.00
28310;BME280;15571;50.974;13.936;2023-04-01T09:29:02;98530.44;;;12.18;100.00
28310;BME280;15571;50.974;13.936;2023-04-01T09:32:16;98526.75;;;12.22;100.00
28310;BME280;15571;50.974;13.936;2023-04-01T09:35:39;98532.63;;;12.28;100.00
28310;BME280;15571;50.974;13.936;2023-04-01T09:38:55;98534.31;;;12.29;100.00
28310;BME280;15571;50.974;13.936;2023-04-01T09:42:15;98530.25;;;12.22;100.00
28310;BME280;15571;50.974;13.936;2023-04-01T09:45:56;98522.84;;;12.32;100.00
28310;BME280;15571;50.974;13.936;2023-04-01T09:52:30;98535.41;;;12.46;100.00
28310;BME280;15571;50.974;13.936;2023-04-01T10:14:39;98547.19;;;12.80;100.00
28310;BME280;15571;50.974;13.936;2023-04-01T10:21:54;98546.53;;;12.96;100.00
28310;BME280;15571;50.974;13.936;2023-04-01T10:25:11;98552.44;;;13.01;100.00
28310;BME280;15571;50.974;13.936;2023-04-01T10:28:27;98537.28;;;13.07;100.00
28310;BME280;15571;50.974;13.936;2023-04-01T10:39:12;98547.84;;;13.06;100.00
28310;BME280;15571;50.974;13.936;2023-04-01T10:46:21;98537.41;;;13.04;100.00
28310;BME280;15571;50.974;13.936;2023-04-01T10:49:44;98538.25;;;13.05;100.00
28310;BME280;15571;50.974;13.936;2023-04-01T10:56:41;98539.56;;;13.15;100.00
28310;BME280;15571;50.974;13.936;2023-04-01T11:00:11;98543.38;;;13.08;100.00
28310;BME280;15571;50.974;13.936;2023-04-01T11:14:01;98536.69;;;13.42;100.00
28310;BME280;15571;50.974;13.936;2023-04-01T11:20:45;98537.22;;;13.50;100.00
28310;BME280;15571;50.974;13.936;2023-04-01T11:27:59;98528.91;;;13.60;100.00
28310;BME280;15571;50.974;13.936;2023-04-01T11:35:39;98536.00;;;13.77;100.00
28310;BME280;15571;50.974;13.936;2023-04-01T11:38:55;98531.50;;;13.80;100.00
28310;BME280;15571;50.974;13.936;2023-04-01T11:42:20;98534.03;;;13.82;100.00
28310;BME280;15571;50.974;13.936;2023-04-01T11:45:48;98531.63;;;13.77;100.00
28310;BME280;15571;50.974;13.936;2023-04-01T11:49:03;98531.31;;;13.83;100.00
28310;BME280;15571;50.974;13.936;2023-04-01T14:27:33;98586.59;;;13.63;100.00
28310;BME280;15571;50.974;13.936;2023-04-01T14:30:45;98588.31;;;13.64;100.00
28310;BME280;15571;50.974;13.936;2023-04-01T14:33:58;98586.59;;;13.63;100.00
28310;BME280;15571;50.974;13.936;2023-04-01T14:37:11;98592.84;;;13.60;100.00
28310;BME280;15571;50.974;13.936;2023-04-01T14:40:28;98597.28;;;13.60;100.00
28310;BME280;15571;50.974;13.936;2023-04-01T14:43:50;98589.31;;;13.61;100.00
28310;BME280;15571;50.974;13.936;2023-04-01T14:47:06;98592.13;;;13.57;100.00
28310;BME280;15571;50.974;13.936;2023-04-01T14:50:14;98599.38;;;13.51;100.00
28310;BME280;15571;50.974;13.936;2023-04-01T14:53:24;98598.63;;;13.48;100.00
28310;BME280;15571;50.974;13.936;2023-04-01T14:56:35;98598.50;;;13.51;100.00
28310;BME280;15571;50.974;13.936;2023-04-01T14:59:40;98607.13;;;13.54;100.00
28310;BME280;15571;50.974;13.936;2023-04-01T15:02:48;98603.19;;;13.44;100.00
28310;BME280;15571;50.974;13.936;2023-04-01T15:06:02;98601.63;;;13.40;100.00
28310;BME280;15571;50.974;13.936;2023-04-01T15:09:15;98605.25;;;13.36;100.00
28310;BME280;15571;50.974;13.936;2023-04-01T15:12:26;98611.31;;;13.38;100.00
28310;BME280;15571;50.974;13.936;2023-04-01T15:15:47;98615.75;;;13.36;100.00
28310;BME280;15571;50.974;13.936;2023-04-01T15:19:00;98619.31;;;13.35;100.00
28310;BME280;15571;50.974;13.936;2023-04-01T15:22:30;98621.94;;;13.35;100.00
28310;BME280;15571;50.974;13.936;2023-04-01T15:25:43;98628.19;;;13.32;100.00
28310;BME280;15571;50.974;13.936;2023-04-01T15:28:53;98625.47;;;13.34;100.00
28310;BME280;15571;50.974;13.936;2023-04-01T15:32:13;98636.34;;;13.26;100.00
28310;BME280;15571;50.974;13.936;2023-04-01T15:35:21;98639.00;;;13.24;100.00
28310;BME280;15571;50.974;13.936;2023-04-01T15:38:33;98654.94;;;13.21;100.00
28310;BME280;15571;50.974;13.936;2023-04-01T15:41:39;98650.44;;;13.23;100.00
28310;BME280;15571;50.974;13.936;2023-04-01T15:45:03;98645.06;;;13.27;100.00
28310;BME280;15571;50.974;13.936;2023-04-01T15:48:27;98652.94;;;13.27;100.00
28310;BME280;15571;50.974;13.936;2023-04-01T15:51:41;98658.47;;;13.20;100.00
28310;BME280;15571;50.974;13.936;2023-04-01T15:54:55;98664.69;;;13.18;100.00
28310;BME280;15571;50.974;13.936;2023-04-01T15:58:06;98662.13;;;13.16;100.00
28310;BME280;15571;50.974;13.936;2023-04-01T16:01:23;98664.03;;;13.13;100.00
28310;BME280;15571;50.974;13.936;2023-04-01T16:07:55;98664.28;;;13.06;100.00
28310;BME280;15571;50.974;13.936;2023-04-01T16:11:06;98670.38;;;13.07;100.00
28310;BME280;15571;50.974;13.936;2023-04-01T16:14:19;98667.66;;;13.10;100.00
28310;BME280;15571;50.974;13.936;2023-04-01T16:17:38;98666.66;;;13.13;100.00
28310;BME280;15571;50.974;13.936;2023-04-01T16:20:57;98681.44;;;13.15;100.00
28310;BME280;15571;50.974;13.936;2023-04-01T16:27:33;98686.94;;;13.09;100.00
28310;BME280;15571;50.974;13.936;2023-04-01T16:30:38;98693.38;;;13.02;100.00
28310;BME280;15571;50.974;13.936;2023-04-01T16:33:47;98696.13;;;12.99;100.00
28310;BME280;15571;50.974;13.936;2023-04-01T16:37:06;98704.09;;;12.96;100.00
28310;BME280;15571;50.974;13.936;2023-04-01T16:40:16;98708.44;;;12.97;100.00
28310;BME280;15571;50.974;13.936;2023-04-01T16:43:28;98716.31;;;12.97;100.00
28310;BME280;15571;50.974;13.936;2023-04-01T16:46:34;98719.88;;;12.96;100.00
28310;BME280;15571;50.974;13.936;2023-04-01T16:49:50;98720.66;;;12.98;100.00
28310;BME280;15571;50.974;13.936;2023-04-01T16:52:58;98725.00;;;12.99;100.00
28310;BME280;15571;50.974;13.936;2023-04-01T16:56:07;98730.19;;;13.00;100.00
28310;BME280;15571;50.974;13.936;2023-04-01T16:59:24;98738.13;;;12.99;100.00
28310;BME280;15571;50.974;13.936;2023-04-01T17:02:33;98741.78;;;12.95;100.00
28310;BME280;15571;50.974;13.936;2023-04-01T17:05:42;98740.22;;;12.90;100.00
28310;BME280;15571;50.974;13.936;2023-04-01T17:08:53;98747.41;;;12.85;100.00
28310;BME280;15571;50.974;13.936;2023-04-01T17:12:03;98762.41;;;12.82;100.00
28310;BME280;15571;50.974;13.936;2023-04-01T17:15:19;98759.88;;;12.80;100.00
28310;BME280;15571;50.974;13.936;2023-04-01T17:18:27;98770.38;;;12.80;100.00
28310;BME280;15571;50.974;13.936;2023-04-01T17:21:44;98773.03;;;12.79;100.00
28310;BME280;15571;50.974;13.936;2023-04-01T17:24:51;98779.25;;;12.76;100.00
28310;BME280;15571;50.974;13.936;2023-04-01T17:27:59;98781.06;;;12.74;100.00
28310;BME280;15571;50.974;13.936;2023-04-01T17:31:10;98786.47;;;12.71;100.00
28310;BME280;15571;50.974;13.936;2023-04-01T17:34:30;98798.91;;;12.66;100.00
28310;BME280;15571;50.974;13.936;2023-04-01T17:37:39;98801.59;;;12.64;100.00
28310;BME280;15571;50.974;13.936;2023-04-01T17:40:56;98804.28;;;12.63;100.00
28310;BME280;15571;50.974;13.936;2023-04-01T17:44:11;98803.69;;;12.54;100.00
28310;BME280;15571;50.974;13.936;2023-04-01T17:50:56;98817.13;;;12.45;100.00
28310;BME280;15571;50.974;13.936;2023-04-01T17:54:05;98816.38;;;12.41;100.00
28310;BME280;15571;50.974;13.936;2023-04-01T17:57:28;98819.19;;;12.37;100.00
28310;BME280;15571;50.974;13.936;2023-04-01T18:00:33;98821.88;;;12.35;100.00
28310;BME280;15571;50.974;13.936;2023-04-01T18:03:45;98821.13;;;12.32;100.00
28310;BME280;15571;50.974;13.936;2023-04-01T18:07:07;98824.75;;;12.27;100.00
28310;BME280;15571;50.974;13.936;2023-04-01T18:10:17;98835.38;;;12.24;100.00
28310;BME280;15571;50.974;13.936;2023-04-01T18:13:33;98841.56;;;12.22;100.00
28310;BME280;15571;50.974;13.936;2023-04-01T18:16:54;98840.81;;;12.18;100.00
28310;BME280;15571;50.974;13.936;2023-04-01T18:23:41;98839.31;;;12.11;100.00
28310;BME280;15571;50.974;13.936;2023-04-01T18:27:00;98844.78;;;12.05;100.00
28310;BME280;15571;50.974;13.936;2023-04-01T18:30:07;98843.16;;;12.01;100.00
28310;BME280;15571;50.974;13.936;2023-04-01T18:33:16;98851.13;;;11.97;100.00
28310;BME280;15571;50.974;13.936;2023-04-01T18:36:24;98856.38;;;11.96;100.00
28310;BME280;15571;50.974;13.936;2023-04-01T18:39:42;98862.69;;;11.90;100.00
28310;BME280;15571;50.974;13.936;2023-04-01T18:42:52;98862.03;;;11.83;100.00
28310;BME280;15571;50.974;13.936;2023-04-01T18:45:58;98856.13;;;11.77;100.00
28310;BME280;15571;50.974;13.936;2023-04-01T18:49:06;98863.97;;;11.77;100.00
28310;BME280;15571;50.974;13.936;2023-04-01T18:52:13;98871.84;;;11.77;100.00
28310;BME280;15571;50.974;13.936;2023-04-01T18:55:24;98873.69;;;11.75;100.00
28310;BME280;15571;50.974;13.936;2023-04-01T18:58:35;98871.06;;;11.75;100.00
28310;BME280;15571;50.974;13.936;2023-04-01T19:01:39;98880.72;;;11.73;100.00
28310;BME280;15571;50.974;13.936;2023-04-01T19:04:45;98877.34;;;11.69;100.00
28310;BME280;15571;50.974;13.936;2023-04-01T19:08:12;98886.16;;;11.66;100.00
28310;BME280;15571;50.974;13.936;2023-04-01T19:11:26;98889.72;;;11.65;100.00
28310;BME280;15571;50.974;13.936;2023-04-01T19:14:41;98897.66;;;11.62;100.00
28310;BME280;15571;50.974;13.936;2023-04-01T19:17:56;98899.47;;;11.60;100.00
28310;BME280;15571;50.974;13.936;2023-04-01T19:21:05;98893.47;;;11.57;100.00
28310;BME280;15571;50.974;13.936;2023-04-01T19:27:41;98899.75;;;11.51;100.00
28310;BME280;15571;50.974;13.936;2023-04-01T19:30:53;98899.81;;;11.49;100.00
28310;BME280;15571;50.974;13.936;2023-04-01T19:34:08;98910.28;;;11.49;100.00
28310;BME280;15571;50.974;13.936;2023-04-01T19:37:31;98912.03;;;11.49;100.00
28310;BME280;15571;50.974;13.936;2023-04-01T19:40:45;98920.78;;;11.49;100.00
28310;BME280;15571;50.974;13.936;2023-04-01T19:43:55;98920.78;;;11.49;100.00
28310;BME280;15571;50.974;13.936;2023-04-01T19:47:07;98921.69;;;11.47;100.00
28310;BME280;15571;50.974;13.936;2023-04-01T19:50:20;98928.75;;;11.45;100.00
28310;BME280;15571;50.974;13.936;2023-04-01T19:53:31;98930.78;;;11.35;100.00
28310;BME280;15571;50.974;13.936;2023-04-01T19:56:41;98930.84;;;11.33;100.00
28310;BME280;15571;50.974;13.936;2023-04-01T19:59:53;98935.53;;;11.22;100.00
28310;BME280;15571;50.974;13.936;2023-04-01T20:03:01;98945.25;;;11.17;100.00
28310;BME280;15571;50.974;13.936;2023-04-01T20:06:08;98947.34;;;11.05;100.00
